sensor_id;sensor_type;location;lat;lon;timestamp;pressure;altitude;pressure_sealevel;temperature;humidity
6532;BME280;3299;42.004;24.868;2024-03-22T00:00:00;98307.06;;;7.87;78.83
6532;BME280;3299;42.004;24.868;2024-03-22T00:02:26;98218.28;;;7.37;78.36
6532;BME280;3299;42.004;24.868;2024-03-22T00:04:51;98313.88;;;8.02;77.56
6532;BME280;3299;42.004;24.868;2024-03-22T00:07:17;98312.94;;;8.03;76.87
6532;BME280;3299;42.004;24.868;2024-03-22T00:09:42;98322.09;;;8.09;75.62
6532;BME280;3299;42.004;24.868;2024-03-22T00:12:07;98232.47;;;7.58;75.78
6532;BME280;3299;42.004;24.868;2024-03-22T00:14:33;98309.00;;;7.98;75.60
6532;BME280;3299;42.004;24.868;2024-03-22T00:16:58;98235.84;;;7.44;75.93
6532;BME280;3299;42.004;24.868;2024-03-22T00:19:24;98223.25;;;7.40;75.91
6532;BME280;3299;42.004;24.868;2024-03-22T00:21:49;98279.16;;;7.52;76.94
6532;BME280;3299;42.004;24.868;2024-03-22T00:24:15;98322.97;;;7.94;76.38
6532;BME280;3299;42.004;24.868;2024-03-22T00:26:40;98231.78;;;7.40;75.99
6532;BME280;3299;42.004;24.868;2024-03-22T00:29:05;98297.88;;;7.83;75.15
6532;BME280;3299;42.004;24.868;2024-03-22T00:31:31;98284.78;;;7.86;76.18
6532;BME280;3299;42.004;24.868;2024-03-22T00:33:56;98260.69;;;7.87;78.32
6532;BME280;3299;42.004;24.868;2024-03-22T00:36:22;98312.53;;;8.25;82.02
6532;BME280;3299;42.004;24.868;2024-03-22T00:38:47;98269.72;;;8.08;83.52
6532;BME280;3299;42.004;24.868;2024-03-22T00:41:13;98333.78;;;8.42;86.70
6532;BME280;3299;42.004;24.868;2024-03-22T00:43:38;98335.94;;;8.62;87.20
6532;BME280;3299;42.004;24.868;2024-03-22T00:46:03;98347.53;;;8.83;87.20
6532;BME280;3299;42.004;24.868;2024-03-22T00:48:29;98334.72;;;8.82;87.00
6532;BME280;3299;42.004;24.868;2024-03-22T00:50:55;98271.88;;;8.56;86.46
6532;BME280;3299;42.004;24.868;2024-03-22T00:53:20;98289.31;;;8.79;86.27
6532;BME280;3299;42.004;24.868;2024-03-22T00:55:45;98359.56;;;9.23;86.11
6532;BME280;3299;42.004;24.868;2024-03-22T00:58:16;98266.53;;;8.59;87.24
6532;BME280;3299;42.004;24.868;2024-03-22T01:00:41;98300.88;;;8.86;87.87
6532;BME280;3299;42.004;24.868;2024-03-22T01:03:07;98311.97;;;8.74;88.63
6532;BME280;3299;42.004;24.868;2024-03-22T01:05:33;98337.00;;;8.86;89.33
6532;BME280;3299;42.004;24.868;2024-03-22T01:07:59;98316.50;;;8.71;89.93
6532;BME280;3299;42.004;24.868;2024-03-22T01:10:24;98319.16;;;8.83;89.70
6532;BME280;3299;42.004;24.868;2024-03-22T01:12:50;98299.47;;;8.68;89.55
6532;BME280;3299;42.004;24.868;2024-03-22T01:15:15;98279.97;;;8.64;88.80
6532;BME280;3299;42.004;24.868;2024-03-22T01:17:41;98321.53;;;8.86;89.40
6532;BME280;3299;42.004;24.868;2024-03-22T01:20:06;98346.56;;;8.98;89.49
6532;BME280;3299;42.004;24.868;2024-03-22T01:22:32;98368.50;;;9.05;88.02
6532;BME280;3299;42.004;24.868;2024-03-22T01:24:57;98316.50;;;8.71;88.62
6532;BME280;3299;42.004;24.868;2024-03-22T01:27:23;98300.53;;;8.52;88.47
6532;BME280;3299;42.004;24.868;2024-03-22T01:29:48;98318.41;;;8.41;89.16
6532;BME280;3299;42.004;24.868;2024-03-22T01:32:14;98365.22;;;8.75;87.59
6532;BME280;3299;42.004;24.868;2024-03-22T01:34:39;98311.22;;;8.46;86.92
6532;BME280;3299;42.004;24.868;2024-03-22T01:37:05;98273.31;;;8.34;85.90
6532;BME280;3299;42.004;24.868;2024-03-22T01:39:30;98365.00;;;8.92;86.30
6532;BME280;3299;42.004;24.868;2024-03-22T01:41:56;98309.69;;;8.70;85.91
6532;BME280;3299;42.004;24.868;2024-03-22T01:44:27;98321.28;;;8.77;85.50
6532;BME280;3299;42.004;24.868;2024-03-22T01:46:53;98352.06;;;9.06;86.11
6532;BME280;3299;42.004;24.868;2024-03-22T01:49:18;98317.69;;;8.79;85.85
6532;BME280;3299;42.004;24.868;2024-03-22T01:51:44;98368.13;;;8.97;87.27
6532;BME280;3299;42.004;24.868;2024-03-22T01:54:10;98274.28;;;8.45;86.79
6532;BME280;3299;42.004;24.868;2024-03-22T01:56:39;98362.47;;;9.05;86.71
6532;BME280;3299;42.004;24.868;2024-03-22T01:59:05;98370.75;;;8.83;88.50
6532;BME280;3299;42.004;24.868;2024-03-22T02:01:32;98273.41;;;8.32;88.79
6532;BME280;3299;42.004;24.868;2024-03-22T02:03:57;98293.09;;;8.47;88.73
6532;BME280;3299;42.004;24.868;2024-03-22T02:06:23;98342.41;;;8.55;88.59
6532;BME280;3299;42.004;24.868;2024-03-22T02:08:48;98277.16;;;7.85;87.92
6532;BME280;3299;42.004;24.868;2024-03-22T02:11:14;98280.03;;;7.94;89.49
6532;BME280;3299;42.004;24.868;2024-03-22T02:13:39;98361.50;;;8.39;90.63
6532;BME280;3299;42.004;24.868;2024-03-22T02:16:05;98337.81;;;8.18;90.80
6532;BME280;3299;42.004;24.868;2024-03-22T02:18:31;98297.38;;;7.63;90.61
6532;BME280;3299;42.004;24.868;2024-03-22T02:20:57;98316.94;;;7.51;91.61
6532;BME280;3299;42.004;24.868;2024-03-22T02:23:33;98334.34;;;7.32;94.09
6532;BME280;3299;42.004;24.868;2024-03-22T02:25:59;98359.34;;;7.30;94.16
6532;BME280;3299;42.004;24.868;2024-03-22T02:28:24;98348.56;;;7.24;94.37
6532;BME280;3299;42.004;24.868;2024-03-22T02:30:50;98331.97;;;7.14;94.98
6532;BME280;3299;42.004;24.868;2024-03-22T02:33:15;98339.00;;;7.26;94.61
6532;BME280;3299;42.004;24.868;2024-03-22T02:35:40;98299.03;;;7.20;91.17
6532;BME280;3299;42.004;24.868;2024-03-22T02:38:06;98342.09;;;7.46;91.29
6532;BME280;3299;42.004;24.868;2024-03-22T02:40:31;98310.47;;;7.30;91.00
6532;BME280;3299;42.004;24.868;2024-03-22T02:42:56;98377.28;;;7.61;91.76
6532;BME280;3299;42.004;24.868;2024-03-22T02:45:22;98285.00;;;7.10;93.30
6532;BME280;3299;42.004;24.868;2024-03-22T02:47:47;98292.22;;;7.19;91.43
6532;BME280;3299;42.004;24.868;2024-03-22T02:50:13;98357.47;;;7.48;92.21
6532;BME280;3299;42.004;24.868;2024-03-22T02:52:38;98339.13;;;7.24;93.10
6532;BME280;3299;42.004;24.868;2024-03-22T02:55:04;98374.69;;;7.32;93.89
6532;BME280;3299;42.004;24.868;2024-03-22T02:57:29;98302.88;;;6.98;93.86
6532;BME280;3299;42.004;24.868;2024-03-22T02:59:54;98367.53;;;7.37;93.71
6532;BME280;3299;42.004;24.868;2024-03-22T03:02:20;98285.44;;;7.03;94.20
6532;BME280;3299;42.004;24.868;2024-03-22T03:04:45;98331.16;;;7.43;93.81
6532;BME280;3299;42.004;24.868;2024-03-22T03:07:11;98332.00;;;7.43;92.99
6532;BME280;3299;42.004;24.868;2024-03-22T03:09:36;98299.22;;;7.02;94.05
6532;BME280;3299;42.004;24.868;2024-03-22T03:12:01;98350.94;;;7.42;94.20
6532;BME280;3299;42.004;24.868;2024-03-22T03:14:27;98366.97;;;7.32;95.10
6532;BME280;3299;42.004;24.868;2024-03-22T03:16:52;98304.56;;;6.83;95.28
6532;BME280;3299;42.004;24.868;2024-03-22T03:19:17;98357.78;;;7.28;95.21
6532;BME280;3299;42.004;24.868;2024-03-22T03:21:43;98388.19;;;7.51;94.20
6532;BME280;3299;42.004;24.868;2024-03-22T03:24:08;98411.38;;;7.51;91.73
6532;BME280;3299;42.004;24.868;2024-03-22T03:26:34;98390.25;;;7.30;92.78
6532;BME280;3299;42.004;24.868;2024-03-22T03:29:00;98405.56;;;7.32;94.18
6532;BME280;3299;42.004;24.868;2024-03-22T03:31:25;98315.50;;;6.71;94.06
6532;BME280;3299;42.004;24.868;2024-03-22T03:33:50;98377.56;;;6.96;94.54
6532;BME280;3299;42.004;24.868;2024-03-22T03:36:16;98412.38;;;7.17;95.30
6532;BME280;3299;42.004;24.868;2024-03-22T03:38:41;98410.91;;;7.13;94.71
6532;BME280;3299;42.004;24.868;2024-03-22T03:41:07;98381.94;;;6.79;96.29
6532;BME280;3299;42.004;24.868;2024-03-22T03:43:32;98356.47;;;6.43;96.73
6532;BME280;3299;42.004;24.868;2024-03-22T03:45:57;98408.31;;;6.82;95.90
6532;BME280;3299;42.004;24.868;2024-03-22T03:48:23;98330.19;;;6.38;93.55
6532;BME280;3299;42.004;24.868;2024-03-22T03:50:54;98317.81;;;6.29;94.31
6532;BME280;3299;42.004;24.868;2024-03-22T03:53:21;98340.41;;;6.40;94.78
6532;BME280;3299;42.004;24.868;2024-03-22T03:55:46;98424.84;;;6.78;95.42
6532;BME280;3299;42.004;24.868;2024-03-22T03:58:12;98423.75;;;6.82;95.42
6532;BME280;3299;42.004;24.868;2024-03-22T04:00:37;98417.69;;;6.83;94.90
6532;BME280;3299;42.004;24.868;2024-03-22T04:03:03;98339.97;;;6.47;94.36
6532;BME280;3299;42.004;24.868;2024-03-22T04:05:28;98365.06;;;6.75;92.99
6532;BME280;3299;42.004;24.868;2024-03-22T04:07:53;98431.41;;;7.15;92.59
6532;BME280;3299;42.004;24.868;2024-03-22T04:10:19;98359.13;;;6.57;85.86
6532;BME280;3299;42.004;24.868;2024-03-22T04:12:44;98399.06;;;6.32;88.97
6532;BME280;3299;42.004;24.868;2024-03-22T04:15:10;98341.94;;;5.94;88.26
6532;BME280;3299;42.004;24.868;2024-03-22T04:17:36;98353.72;;;5.98;87.73
6532;BME280;3299;42.004;24.868;2024-03-22T04:20:02;98402.34;;;6.34;88.40
6532;BME280;3299;42.004;24.868;2024-03-22T04:22:29;98406.69;;;6.33;87.24
6532;BME280;3299;42.004;24.868;2024-03-22T04:24:54;98424.44;;;6.38;85.24
6532;BME280;3299;42.004;24.868;2024-03-22T04:27:20;98442.88;;;6.46;85.06
6532;BME280;3299;42.004;24.868;2024-03-22T04:29:48;98393.81;;;6.18;85.36
6532;BME280;3299;42.004;24.868;2024-03-22T04:32:13;98461.91;;;6.42;85.22
6532;BME280;3299;42.004;24.868;2024-03-22T04:34:42;98379.34;;;6.00;85.34
6532;BME280;3299;42.004;24.868;2024-03-22T04:37:07;98360.50;;;5.99;84.71
6532;BME280;3299;42.004;24.868;2024-03-22T04:39:33;98405.59;;;6.05;84.31
6532;BME280;3299;42.004;24.868;2024-03-22T04:41:58;98380.59;;;5.74;85.00
6532;BME280;3299;42.004;24.868;2024-03-22T04:44:23;98397.66;;;5.75;86.48
6532;BME280;3299;42.004;24.868;2024-03-22T04:46:50;98350.09;;;5.34;87.75
6532;BME280;3299;42.004;24.868;2024-03-22T04:49:15;98455.47;;;6.01;88.13
6532;BME280;3299;42.004;24.868;2024-03-22T04:51:41;98381.50;;;5.56;88.21
6532;BME280;3299;42.004;24.868;2024-03-22T04:54:06;98356.03;;;5.35;88.32
6532;BME280;3299;42.004;24.868;2024-03-22T04:56:31;98368.78;;;5.19;89.50
6532;BME280;3299;42.004;24.868;2024-03-22T04:58:57;98475.16;;;5.83;89.18
6532;BME280;3299;42.004;24.868;2024-03-22T05:01:25;98458.22;;;5.62;90.19
6532;BME280;3299;42.004;24.868;2024-03-22T05:03:50;98474.34;;;5.64;90.31
6532;BME280;3299;42.004;24.868;2024-03-22T05:06:17;98479.72;;;5.60;90.59
6532;BME280;3299;42.004;24.868;2024-03-22T05:08:42;98375.28;;;5.09;90.45
6532;BME280;3299;42.004;24.868;2024-03-22T05:11:08;98381.28;;;5.08;90.19
6532;BME280;3299;42.004;24.868;2024-03-22T05:13:33;98383.13;;;5.23;89.35
6532;BME280;3299;42.004;24.868;2024-03-22T05:15:58;98423.75;;;5.49;89.22
6532;BME280;3299;42.004;24.868;2024-03-22T05:18:24;98450.22;;;5.68;89.39
6532;BME280;3299;42.004;24.868;2024-03-22T05:20:49;98468.56;;;5.78;89.14
6532;BME280;3299;42.004;24.868;2024-03-22T05:23:15;98476.06;;;5.82;89.07
6532;BME280;3299;42.004;24.868;2024-03-22T05:25:43;98437.66;;;5.62;89.04
6532;BME280;3299;42.004;24.868;2024-03-22T05:28:09;98406.09;;;5.43;88.75
6532;BME280;3299;42.004;24.868;2024-03-22T05:30:34;98450.53;;;5.79;88.25
6532;BME280;3299;42.004;24.868;2024-03-22T05:33:00;98492.63;;;6.11;87.79
6532;BME280;3299;42.004;24.868;2024-03-22T05:35:26;98488.91;;;6.16;86.64
6532;BME280;3299;42.004;24.868;2024-03-22T05:37:52;98400.56;;;5.86;85.48
6532;BME280;3299;42.004;24.868;2024-03-22T05:40:17;98456.25;;;6.35;83.43
6532;BME280;3299;42.004;24.868;2024-03-22T05:42:43;98403.13;;;6.03;82.71
6532;BME280;3299;42.004;24.868;2024-03-22T05:45:09;98402.63;;;6.12;82.04
6532;BME280;3299;42.004;24.868;2024-03-22T05:47:34;98434.56;;;6.41;81.88
6532;BME280;3299;42.004;24.868;2024-03-22T05:50:00;98462.19;;;6.53;81.49
6532;BME280;3299;42.004;24.868;2024-03-22T05:52:26;98458.75;;;6.69;80.53
6532;BME280;3299;42.004;24.868;2024-03-22T05:54:51;98490.28;;;6.88;80.96
6532;BME280;3299;42.004;24.868;2024-03-22T05:57:17;98443.91;;;6.74;80.46
6532;BME280;3299;42.004;24.868;2024-03-22T05:59:42;98516.75;;;7.38;79.43
6532;BME280;3299;42.004;24.868;2024-03-22T06:02:07;98424.34;;;6.87;78.92
6532;BME280;3299;42.004;24.868;2024-03-22T06:04:33;98434.06;;;7.13;78.00
6532;BME280;3299;42.004;24.868;2024-03-22T06:07:00;98511.56;;;7.69;77.77
6532;BME280;3299;42.004;24.868;2024-03-22T06:09:26;98490.22;;;7.67;76.71
6532;BME280;3299;42.004;24.868;2024-03-22T06:12:11;98445.34;;;7.42;76.27
6532;BME280;3299;42.004;24.868;2024-03-22T06:14:37;98413.41;;;7.30;75.68
6532;BME280;3299;42.004;24.868;2024-03-22T06:17:05;98504.81;;;7.98;75.52
6532;BME280;3299;42.004;24.868;2024-03-22T06:19:31;98471.91;;;7.87;75.07
6532;BME280;3299;42.004;24.868;2024-03-22T06:21:56;98426.44;;;7.72;74.64
6532;BME280;3299;42.004;24.868;2024-03-22T06:24:21;98470.50;;;8.11;73.69
6532;BME280;3299;42.004;24.868;2024-03-22T06:26:47;98470.91;;;8.19;72.93
6532;BME280;3299;42.004;24.868;2024-03-22T06:29:14;98493.72;;;8.41;72.33
6532;BME280;3299;42.004;24.868;2024-03-22T06:31:41;98516.75;;;8.72;71.00
6532;BME280;3299;42.004;24.868;2024-03-22T06:34:07;98520.31;;;8.85;70.76
6532;BME280;3299;42.004;24.868;2024-03-22T06:36:33;98424.03;;;8.42;70.19
6532;BME280;3299;42.004;24.868;2024-03-22T06:38:58;98487.38;;;8.74;69.47
6532;BME280;3299;42.004;24.868;2024-03-22T06:41:24;98470.16;;;8.89;69.16
6532;BME280;3299;42.004;24.868;2024-03-22T06:43:51;98412.88;;;8.70;68.66
6532;BME280;3299;42.004;24.868;2024-03-22T06:46:16;98452.34;;;8.98;68.24
6532;BME280;3299;42.004;24.868;2024-03-22T06:48:42;98518.50;;;9.41;67.42
6532;BME280;3299;42.004;24.868;2024-03-22T06:51:07;98477.47;;;9.23;67.11
6532;BME280;3299;42.004;24.868;2024-03-22T06:53:33;98441.13;;;8.99;66.90
6532;BME280;3299;42.004;24.868;2024-03-22T06:55:58;98506.09;;;9.60;66.99
6532;BME280;3299;42.004;24.868;2024-03-22T06:58:23;98510.06;;;9.66;66.18
6532;BME280;3299;42.004;24.868;2024-03-22T07:00:50;98493.72;;;9.65;65.34
6532;BME280;3299;42.004;24.868;2024-03-22T07:03:15;98467.56;;;9.43;65.66
6532;BME280;3299;42.004;24.868;2024-03-22T07:05:42;98472.81;;;9.68;65.80
6532;BME280;3299;42.004;24.868;2024-03-22T07:08:08;98487.19;;;9.98;65.29
6532;BME280;3299;42.004;24.868;2024-03-22T07:10:33;98510.84;;;10.19;64.81
6532;BME280;3299;42.004;24.868;2024-03-22T07:12:59;98487.31;;;10.23;64.28
6532;BME280;3299;42.004;24.868;2024-03-22T07:15:25;98499.31;;;10.49;63.77
6532;BME280;3299;42.004;24.868;2024-03-22T07:17:50;98541.75;;;10.72;62.54
6532;BME280;3299;42.004;24.868;2024-03-22T07:20:17;98502.41;;;10.42;62.73
6532;BME280;3299;42.004;24.868;2024-03-22T07:22:42;98495.16;;;10.34;63.17
6532;BME280;3299;42.004;24.868;2024-03-22T07:25:08;98500.94;;;10.38;63.57
6532;BME280;3299;42.004;24.868;2024-03-22T07:27:36;98492.16;;;10.28;64.66
6532;BME280;3299;42.004;24.868;2024-03-22T07:30:02;98454.19;;;10.28;65.22
6532;BME280;3299;42.004;24.868;2024-03-22T07:32:28;98495.81;;;10.50;66.20
6532;BME280;3299;42.004;24.868;2024-03-22T07:34:54;98467.25;;;10.52;65.87
6532;BME280;3299;42.004;24.868;2024-03-22T07:37:19;98518.06;;;11.03;65.01
6532;BME280;3299;42.004;24.868;2024-03-22T07:39:45;98469.31;;;10.84;64.12
6532;BME280;3299;42.004;24.868;2024-03-22T07:42:11;98550.22;;;11.49;65.05
6532;BME280;3299;42.004;24.868;2024-03-22T07:44:36;98522.84;;;11.45;65.11
6532;BME280;3299;42.004;24.868;2024-03-22T07:47:02;98547.25;;;11.78;64.47
6532;BME280;3299;42.004;24.868;2024-03-22T07:49:27;98468.44;;;11.45;64.59
6532;BME280;3299;42.004;24.868;2024-03-22T07:51:52;98475.28;;;11.58;64.24
6532;BME280;3299;42.004;24.868;2024-03-22T07:54:18;98549.53;;;12.06;62.92
6532;BME280;3299;42.004;24.868;2024-03-22T07:56:44;98505.66;;;11.44;64.10
6532;BME280;3299;42.004;24.868;2024-03-22T07:59:09;98550.38;;;11.71;64.50
6532;BME280;3299;42.004;24.868;2024-03-22T08:01:35;98465.50;;;11.26;64.93
6532;BME280;3299;42.004;24.868;2024-03-22T08:04:00;98519.84;;;11.63;64.64
6532;BME280;3299;42.004;24.868;2024-03-22T08:06:25;98469.47;;;11.55;64.30
6532;BME280;3299;42.004;24.868;2024-03-22T08:08:51;98477.00;;;11.70;64.04
6532;BME280;3299;42.004;24.868;2024-03-22T08:11:16;98553.47;;;12.23;64.06
6532;BME280;3299;42.004;24.868;2024-03-22T08:13:41;98471.06;;;11.92;63.88
6532;BME280;3299;42.004;24.868;2024-03-22T08:16:07;98562.81;;;12.60;63.31
6532;BME280;3299;42.004;24.868;2024-03-22T08:18:32;98544.75;;;12.58;62.75
6532;BME280;3299;42.004;24.868;2024-03-22T08:20:58;98498.81;;;12.37;62.03
6532;BME280;3299;42.004;24.868;2024-03-22T08:23:24;98544.06;;;12.67;62.03
6532;BME280;3299;42.004;24.868;2024-03-22T08:25:49;98520.34;;;12.61;62.39
6532;BME280;3299;42.004;24.868;2024-03-22T08:28:15;98544.41;;;12.63;62.21
6532;BME280;3299;42.004;24.868;2024-03-22T08:30:41;98494.09;;;12.31;62.79
6532;BME280;3299;42.004;24.868;2024-03-22T08:33:07;98570.03;;;12.67;61.68
6532;BME280;3299;42.004;24.868;2024-03-22T08:35:33;98516.03;;;12.38;62.07
6532;BME280;3299;42.004;24.868;2024-03-22T08:37:58;98519.16;;;12.54;61.36
6532;BME280;3299;42.004;24.868;2024-03-22T08:40:24;98550.59;;;12.73;61.31
6532;BME280;3299;42.004;24.868;2024-03-22T08:42:49;98475.34;;;12.38;60.67
6532;BME280;3299;42.004;24.868;2024-03-22T08:45:15;98518.25;;;12.77;60.08
6532;BME280;3299;42.004;24.868;2024-03-22T08:47:42;98529.78;;;12.62;59.89
6532;BME280;3299;42.004;24.868;2024-03-22T08:50:07;98545.75;;;12.34;60.20
6532;BME280;3299;42.004;24.868;2024-03-22T08:52:33;98537.53;;;11.93;61.41
6532;BME280;3299;42.004;24.868;2024-03-22T08:55:00;98555.16;;;12.00;62.12
6532;BME280;3299;42.004;24.868;2024-03-22T08:57:26;98500.53;;;11.91;62.30
6532;BME280;3299;42.004;24.868;2024-03-22T08:59:51;98468.53;;;12.03;61.07
6532;BME280;3299;42.004;24.868;2024-03-22T09:02:17;98549.16;;;12.80;59.70
6532;BME280;3299;42.004;24.868;2024-03-22T09:04:42;98537.63;;;12.95;59.34
6532;BME280;3299;42.004;24.868;2024-03-22T09:07:07;98501.50;;;12.92;58.93
6532;BME280;3299;42.004;24.868;2024-03-22T09:09:33;98540.25;;;12.95;59.22
6532;BME280;3299;42.004;24.868;2024-03-22T09:11:58;98540.28;;;13.06;59.36
6532;BME280;3299;42.004;24.868;2024-03-22T09:14:24;98457.59;;;12.78;58.95
6532;BME280;3299;42.004;24.868;2024-03-22T09:16:49;98486.44;;;13.08;57.53
6532;BME280;3299;42.004;24.868;2024-03-22T09:19:14;98510.03;;;13.27;57.83
6532;BME280;3299;42.004;24.868;2024-03-22T09:21:40;98464.81;;;13.18;56.86
6532;BME280;3299;42.004;24.868;2024-03-22T09:24:06;98490.28;;;13.46;55.07
6532;BME280;3299;42.004;24.868;2024-03-22T09:26:32;98527.91;;;13.74;54.85
6532;BME280;3299;42.004;24.868;2024-03-22T09:28:58;98514.94;;;13.63;54.13
6532;BME280;3299;42.004;24.868;2024-03-22T09:31:23;98481.94;;;13.21;54.19
6532;BME280;3299;42.004;24.868;2024-03-22T09:33:49;98510.03;;;13.38;54.85
6532;BME280;3299;42.004;24.868;2024-03-22T09:36:14;98506.25;;;13.42;54.90
6532;BME280;3299;42.004;24.868;2024-03-22T09:38:39;98524.44;;;13.53;55.32
6532;BME280;3299;42.004;24.868;2024-03-22T09:41:05;98478.13;;;13.47;53.73
6532;BME280;3299;42.004;24.868;2024-03-22T09:43:31;98483.97;;;13.71;53.61
6532;BME280;3299;42.004;24.868;2024-03-22T09:45:57;98483.03;;;13.72;52.81
6532;BME280;3299;42.004;24.868;2024-03-22T09:48:23;98535.88;;;14.04;53.33
6532;BME280;3299;42.004;24.868;2024-03-22T09:50:49;98545.84;;;14.30;52.76
6532;BME280;3299;42.004;24.868;2024-03-22T09:53:21;98471.78;;;14.03;51.74
6532;BME280;3299;42.004;24.868;2024-03-22T09:55:50;98506.97;;;14.18;51.35
6532;BME280;3299;42.004;24.868;2024-03-22T09:58:17;98488.28;;;14.24;50.59
6532;BME280;3299;42.004;24.868;2024-03-22T10:00:43;98458.44;;;14.07;49.57
6532;BME280;3299;42.004;24.868;2024-03-22T10:03:09;98460.56;;;14.02;49.99
6532;BME280;3299;42.004;24.868;2024-03-22T10:05:35;98540.38;;;14.65;49.98
6532;BME280;3299;42.004;24.868;2024-03-22T10:08:01;98527.09;;;14.68;48.82
6532;BME280;3299;42.004;24.868;2024-03-22T10:10:27;98538.03;;;14.62;47.69
6532;BME280;3299;42.004;24.868;2024-03-22T10:12:53;98504.59;;;14.26;47.65
6532;BME280;3299;42.004;24.868;2024-03-22T10:15:18;98494.06;;;14.48;47.39
6532;BME280;3299;42.004;24.868;2024-03-22T10:17:45;98530.06;;;14.84;46.25
6532;BME280;3299;42.004;24.868;2024-03-22T10:20:13;98485.19;;;14.71;45.72
6532;BME280;3299;42.004;24.868;2024-03-22T10:23:02;98529.28;;;15.13;45.45
6532;BME280;3299;42.004;24.868;2024-03-22T10:25:28;98445.06;;;14.83;43.88
6532;BME280;3299;42.004;24.868;2024-03-22T10:27:54;98500.97;;;15.09;42.81
6532;BME280;3299;42.004;24.868;2024-03-22T10:30:20;98475.88;;;14.78;42.41
6532;BME280;3299;42.004;24.868;2024-03-22T10:32:46;98438.88;;;14.54;43.12
6532;BME280;3299;42.004;24.868;2024-03-22T10:35:13;98429.94;;;14.47;43.50
6532;BME280;3299;42.004;24.868;2024-03-22T10:37:39;98437.72;;;14.67;42.33
6532;BME280;3299;42.004;24.868;2024-03-22T10:40:05;98489.78;;;15.18;42.81
6532;BME280;3299;42.004;24.868;2024-03-22T10:42:39;98458.09;;;15.22;40.54
6532;BME280;3299;42.004;24.868;2024-03-22T10:45:06;98493.13;;;15.69;39.09
6532;BME280;3299;42.004;24.868;2024-03-22T10:47:33;98473.47;;;15.65;38.78
6532;BME280;3299;42.004;24.868;2024-03-22T10:52:38;98494.94;;;16.35;38.48
6532;BME280;3299;42.004;24.868;2024-03-22T10:55:06;98495.50;;;16.67;35.44
6532;BME280;3299;42.004;24.868;2024-03-22T10:57:33;98492.16;;;16.84;35.89
6532;BME280;3299;42.004;24.868;2024-03-22T11:00:04;98467.09;;;16.91;35.62
6532;BME280;3299;42.004;24.868;2024-03-22T11:02:35;98398.72;;;16.86;35.54
6532;BME280;3299;42.004;24.868;2024-03-22T11:05:00;98398.56;;;16.97;35.48
6532;BME280;3299;42.004;24.868;2024-03-22T11:07:29;98416.84;;;17.24;35.48
6532;BME280;3299;42.004;24.868;2024-03-22T11:10:00;98487.28;;;17.79;35.14
6532;BME280;3299;42.004;24.868;2024-03-22T11:12:26;98472.28;;;17.81;34.83
6532;BME280;3299;42.004;24.868;2024-03-22T11:14:53;98437.34;;;17.28;34.33
6532;BME280;3299;42.004;24.868;2024-03-22T11:17:19;98382.16;;;16.68;34.82
6532;BME280;3299;42.004;24.868;2024-03-22T11:19:46;98475.25;;;17.15;34.95
6532;BME280;3299;42.004;24.868;2024-03-22T11:22:12;98391.75;;;16.21;35.55
6532;BME280;3299;42.004;24.868;2024-03-22T11:24:38;98381.97;;;16.33;36.00
6532;BME280;3299;42.004;24.868;2024-03-22T11:27:03;98437.63;;;16.89;35.64
6532;BME280;3299;42.004;24.868;2024-03-22T11:29:29;98389.91;;;16.50;33.54
6532;BME280;3299;42.004;24.868;2024-03-22T11:31:54;98421.19;;;16.79;34.45
6532;BME280;3299;42.004;24.868;2024-03-22T11:34:20;98371.09;;;16.37;35.27
6532;BME280;3299;42.004;24.868;2024-03-22T11:36:45;98438.56;;;16.61;35.87
6532;BME280;3299;42.004;24.868;2024-03-22T11:39:11;98400.22;;;16.52;35.61
6532;BME280;3299;42.004;24.868;2024-03-22T11:41:36;98401.94;;;16.80;35.16
6532;BME280;3299;42.004;24.868;2024-03-22T11:44:02;98365.59;;;16.31;35.30
6532;BME280;3299;42.004;24.868;2024-03-22T11:46:27;98421.78;;;16.54;35.47
6532;BME280;3299;42.004;24.868;2024-03-22T11:48:53;98402.16;;;16.50;35.53
6532;BME280;3299;42.004;24.868;2024-03-22T11:51:20;98436.25;;;16.94;35.61
6532;BME280;3299;42.004;24.868;2024-03-22T11:53:50;98426.72;;;17.03;35.54
6532;BME280;3299;42.004;24.868;2024-03-22T11:56:20;98357.00;;;16.67;36.06
6532;BME280;3299;42.004;24.868;2024-03-22T11:58:47;98429.53;;;17.46;35.59
6532;BME280;3299;42.004;24.868;2024-03-22T12:01:16;98421.50;;;17.74;35.02
6532;BME280;3299;42.004;24.868;2024-03-22T12:03:46;98357.13;;;17.64;33.72
6532;BME280;3299;42.004;24.868;2024-03-22T12:06:12;98383.88;;;17.93;33.19
6532;BME280;3299;42.004;24.868;2024-03-22T12:08:38;98375.91;;;18.20;33.01
6532;BME280;3299;42.004;24.868;2024-03-22T12:11:07;98343.56;;;17.86;33.27
6532;BME280;3299;42.004;24.868;2024-03-22T12:13:33;98375.22;;;17.75;33.39
6532;BME280;3299;42.004;24.868;2024-03-22T12:15:58;98343.16;;;17.38;34.03
6532;BME280;3299;42.004;24.868;2024-03-22T12:18:24;98398.00;;;17.47;33.65
6532;BME280;3299;42.004;24.868;2024-03-22T12:20:49;98322.88;;;17.40;33.46
6532;BME280;3299;42.004;24.868;2024-03-22T12:23:15;98375.00;;;17.68;32.39
6532;BME280;3299;42.004;24.868;2024-03-22T12:25:40;98403.22;;;18.00;32.95
6532;BME280;3299;42.004;24.868;2024-03-22T12:28:05;98353.56;;;17.90;32.42
6532;BME280;3299;42.004;24.868;2024-03-22T12:30:31;98395.16;;;18.54;32.54
6532;BME280;3299;42.004;24.868;2024-03-22T12:32:57;98409.03;;;18.80;31.06
6532;BME280;3299;42.004;24.868;2024-03-22T12:35:22;98401.19;;;18.80;31.02
6532;BME280;3299;42.004;24.868;2024-03-22T12:37:47;98370.44;;;18.13;31.63
6532;BME280;3299;42.004;24.868;2024-03-22T12:40:13;98403.53;;;18.32;31.85
6532;BME280;3299;42.004;24.868;2024-03-22T12:42:39;98326.78;;;18.22;32.05
6532;BME280;3299;42.004;24.868;2024-03-22T12:45:05;98363.75;;;18.36;30.59
6532;BME280;3299;42.004;24.868;2024-03-22T12:47:32;98349.38;;;18.23;30.67
6532;BME280;3299;42.004;24.868;2024-03-22T12:49:57;98397.59;;;18.12;30.58
6532;BME280;3299;42.004;24.868;2024-03-22T12:52:23;98370.50;;;18.21;30.78
6532;BME280;3299;42.004;24.868;2024-03-22T12:54:48;98385.25;;;18.22;31.59
6532;BME280;3299;42.004;24.868;2024-03-22T12:57:14;98324.50;;;17.76;31.26
6532;BME280;3299;42.004;24.868;2024-03-22T12:59:39;98326.19;;;18.28;30.28
6532;BME280;3299;42.004;24.868;2024-03-22T13:02:04;98303.97;;;18.14;30.22
6532;BME280;3299;42.004;24.868;2024-03-22T13:04:31;98349.06;;;18.18;29.67
6532;BME280;3299;42.004;24.868;2024-03-22T13:06:56;98360.22;;;18.45;30.60
6532;BME280;3299;42.004;24.868;2024-03-22T13:09:22;98298.25;;;18.11;30.61
6532;BME280;3299;42.004;24.868;2024-03-22T13:11:48;98372.84;;;18.50;30.08